C6037 KNBG-KNBG
Flight info
| Callsign | C6037 |
|---|---|
| Flight time | 0h 36m |
| Altitude | 4500 |
| Route | VFR |
| Aircraft | H60/M-V/N |
Departure
| Time | 2026-04-21 00:17 |
|---|---|
| Airport | New Orleans NAS JRB/Alvin Callender Field (KNBG) |
Arrival
| Time | 2026-04-21 00:53 |
|---|---|
| Airport | New Orleans NAS JRB/Alvin Callender Field (KNBG) |
| Time | Latitude | Longitude | Altitude | Speed | Heading |
|---|---|---|---|---|---|
| 2026-04-21 00:08 | 29.82207 | -90.02612 | 9 ft | 0 kts | 141° |
| 2026-04-21 00:09 | 29.82153 | -90.02602 | 9 ft | 0 kts | 171° |
| 2026-04-21 00:09 | 29.82120 | -90.02644 | 9 ft | 0 kts | 322° |
| 2026-04-21 00:16 | 29.82131 | -90.02647 | 31 ft | 10 kts | 329° |
| 2026-04-21 00:16 | 29.82096 | -90.02771 | 189 ft | 47 kts | 184° |
| 2026-04-21 00:17 | 29.81542 | -90.02614 | 471 ft | 98 kts | 165° |
| 2026-04-21 00:17 | 29.80769 | -90.02433 | 727 ft | 139 kts | 163° |
| 2026-04-21 00:17 | 29.79889 | -90.01752 | 458 ft | 154 kts | 158° |
| 2026-04-21 00:17 | 29.78879 | -90.01845 | 549 ft | 150 kts | 192° |
| 2026-04-21 00:18 | 29.78204 | -90.02050 | 517 ft | 152 kts | 192° |
| 2026-04-21 00:18 | 29.77186 | -90.02379 | 479 ft | 151 kts | 185° |
| 2026-04-21 00:18 | 29.76176 | -90.02461 | 483 ft | 147 kts | 173° |
| 2026-04-21 00:18 | 29.74928 | -90.02118 | 671 ft | 141 kts | 131° |
| 2026-04-21 00:19 | 29.74419 | -90.01563 | 723 ft | 151 kts | 130° |
| 2026-04-21 00:19 | 29.73798 | -90.00648 | 732 ft | 139 kts | 125° |
| 2026-04-21 00:19 | 29.73182 | -89.99760 | 639 ft | 143 kts | 141° |
| 2026-04-21 00:19 | 29.72364 | -89.99085 | 619 ft | 149 kts | 149° |
| 2026-04-21 00:20 | 29.71449 | -89.98574 | 696 ft | 141 kts | 152° |
| 2026-04-21 00:20 | 29.70584 | -89.98085 | 531 ft | 139 kts | 150° |
| 2026-04-21 00:20 | 29.69410 | -89.97367 | 401 ft | 142 kts | 150° |
| 2026-04-21 00:20 | 29.68835 | -89.97015 | 511 ft | 139 kts | 150° |
| 2026-04-21 00:21 | 29.67964 | -89.96489 | 658 ft | 144 kts | 150° |
| 2026-04-21 00:21 | 29.67050 | -89.96017 | 568 ft | 142 kts | 154° |
| 2026-04-21 00:21 | 29.66129 | -89.95630 | 1014 ft | 143 kts | 158° |
| 2026-04-21 00:21 | 29.65140 | -89.95297 | 825 ft | 155 kts | 158° |
| 2026-04-21 00:22 | 29.64168 | -89.94779 | 664 ft | 148 kts | 117° |
| 2026-04-21 00:22 | 29.63702 | -89.93784 | 634 ft | 156 kts | 113° |
| 2026-04-21 00:22 | 29.63224 | -89.92593 | 478 ft | 170 kts | 117° |
| 2026-04-21 00:22 | 29.62645 | -89.91392 | 454 ft | 174 kts | 117° |
| 2026-04-21 00:23 | 29.62080 | -89.90160 | 288 ft | 172 kts | 117° |
| 2026-04-21 00:23 | 29.61627 | -89.89184 | 1008 ft | 134 kts | 118° |
| 2026-04-21 00:23 | 29.61123 | -89.88168 | 1005 ft | 158 kts | 118° |
| 2026-04-21 00:23 | 29.60663 | -89.86986 | 787 ft | 155 kts | 107° |
| 2026-04-21 00:24 | 29.60385 | -89.85841 | 818 ft | 145 kts | 104° |
| 2026-04-21 00:24 | 29.60112 | -89.84708 | 782 ft | 152 kts | 105° |
| 2026-04-21 00:24 | 29.59672 | -89.83549 | 680 ft | 161 kts | 119° |
| 2026-04-21 00:24 | 29.59068 | -89.82496 | 560 ft | 156 kts | 122° |
| 2026-04-21 00:25 | 29.58488 | -89.81493 | 624 ft | 146 kts | 122° |
| 2026-04-21 00:25 | 29.57936 | -89.80547 | 707 ft | 141 kts | 122° |
| 2026-04-21 00:25 | 29.57272 | -89.79624 | 665 ft | 158 kts | 129° |
| 2026-04-21 00:25 | 29.56523 | -89.78632 | 468 ft | 166 kts | 130° |
| 2026-04-21 00:26 | 29.55678 | -89.77755 | 408 ft | 158 kts | 137° |
| 2026-04-21 00:26 | 29.54877 | -89.76948 | 375 ft | 155 kts | 136° |
| 2026-04-21 00:26 | 29.54115 | -89.76132 | 372 ft | 146 kts | 135° |
| 2026-04-21 00:26 | 29.53384 | -89.75371 | 535 ft | 138 kts | 128° |
| 2026-04-21 00:27 | 29.52826 | -89.74478 | 295 ft | 137 kts | 117° |
| 2026-04-21 00:27 | 29.52450 | -89.73445 | 494 ft | 141 kts | 111° |
| 2026-04-21 00:27 | 29.51954 | -89.72525 | 611 ft | 138 kts | 123° |
| 2026-04-21 00:27 | 29.51300 | -89.71691 | 757 ft | 144 kts | 141° |
| 2026-04-21 00:28 | 29.50389 | -89.71017 | 569 ft | 162 kts | 146° |
| 2026-04-21 00:28 | 29.49506 | -89.70382 | 565 ft | 145 kts | 146° |
| 2026-04-21 00:28 | 29.48662 | -89.69680 | 570 ft | 156 kts | 136° |
| 2026-04-21 00:28 | 29.47900 | -89.68888 | 472 ft | 140 kts | 134° |
| 2026-04-21 00:29 | 29.47221 | -89.68091 | 651 ft | 146 kts | 137° |
| 2026-04-21 00:29 | 29.46305 | -89.67829 | 998 ft | 136 kts | 195° |
| 2026-04-21 00:29 | 29.45314 | -89.68289 | 975 ft | 169 kts | 197° |
| 2026-04-21 00:29 | 29.44250 | -89.68774 | 1074 ft | 158 kts | 197° |
| 2026-04-21 00:30 | 29.43201 | -89.69260 | 931 ft | 169 kts | 199° |
| 2026-04-21 00:30 | 29.42138 | -89.69786 | 1249 ft | 167 kts | 199° |
| 2026-04-21 00:30 | 29.41062 | -89.70314 | 1528 ft | 174 kts | 199° |
| 2026-04-21 00:30 | 29.39915 | -89.70948 | 1529 ft | 186 kts | 202° |
| 2026-04-21 00:31 | 29.38771 | -89.71598 | 1583 ft | 182 kts | 201° |
| 2026-04-21 00:31 | 29.37609 | -89.72249 | 1583 ft | 192 kts | 201° |
| 2026-04-21 00:31 | 29.36401 | -89.72904 | 1473 ft | 197 kts | 202° |
| 2026-04-21 00:31 | 29.35120 | -89.73548 | 1209 ft | 200 kts | 197° |
| 2026-04-21 00:32 | 29.33915 | -89.74043 | 923 ft | 167 kts | 194° |
| 2026-04-21 00:32 | 29.32807 | -89.74472 | 622 ft | 169 kts | 194° |
| 2026-04-21 00:32 | 29.31713 | -89.74928 | 637 ft | 170 kts | 198° |
| 2026-04-21 00:32 | 29.30638 | -89.75432 | 680 ft | 164 kts | 198° |
| 2026-04-21 00:33 | 29.29582 | -89.75921 | 693 ft | 163 kts | 198° |
| 2026-04-21 00:33 | 29.28519 | -89.76393 | 440 ft | 166 kts | 197° |
| 2026-04-21 00:33 | 29.27464 | -89.76811 | 471 ft | 157 kts | 196° |
| 2026-04-21 00:33 | 29.26435 | -89.77278 | 635 ft | 161 kts | 202° |
| 2026-04-21 00:34 | 29.25424 | -89.77843 | 818 ft | 164 kts | 203° |
| 2026-04-21 00:34 | 29.24379 | -89.78410 | 898 ft | 167 kts | 203° |
| 2026-04-21 00:34 | 29.23359 | -89.78984 | 839 ft | 162 kts | 203° |
| 2026-04-21 00:34 | 29.22332 | -89.79575 | 813 ft | 166 kts | 202° |
| 2026-04-21 00:35 | 29.21302 | -89.80150 | 862 ft | 164 kts | 205° |
| 2026-04-21 00:35 | 29.20513 | -89.80888 | 612 ft | 129 kts | 232° |
| 2026-04-21 00:35 | 29.20182 | -89.81729 | 379 ft | 118 kts | 252° |
| 2026-04-21 00:35 | 29.20261 | -89.82365 | 519 ft | 52 kts | 51° |
| 2026-04-21 00:36 | 29.20402 | -89.82339 | 428 ft | 36 kts | 82° |
| 2026-04-21 00:36 | 29.20419 | -89.81931 | 407 ft | 61 kts | 80° |
| 2026-04-21 00:36 | 29.20422 | -89.81634 | 305 ft | 16 kts | 84° |
| 2026-04-21 00:36 | 29.20381 | -89.81576 | 62 ft | 8 kts | 202° |
| 2026-04-21 00:37 | 29.20410 | -89.81608 | 134 ft | 20 kts | 203° |
| 2026-04-21 00:37 | 29.20054 | -89.81976 | 316 ft | 130 kts | 254° |
| 2026-04-21 00:37 | 29.20013 | -89.83131 | 549 ft | 156 kts | 285° |
| 2026-04-21 00:37 | 29.20301 | -89.84445 | 909 ft | 172 kts | 288° |
| 2026-04-21 00:38 | 29.20841 | -89.85637 | 1209 ft | 173 kts | 323° |
| 2026-04-21 00:38 | 29.21919 | -89.86245 | 1190 ft | 180 kts | 347° |
| 2026-04-21 00:38 | 29.23140 | -89.86640 | 992 ft | 182 kts | 349° |
| 2026-04-21 00:38 | 29.24299 | -89.87047 | 1094 ft | 167 kts | 351° |
| 2026-04-21 00:39 | 29.25456 | -89.87198 | 1250 ft | 175 kts | 0° |
| 2026-04-21 00:39 | 29.26739 | -89.87346 | 1038 ft | 193 kts | 360° |
| 2026-04-21 00:39 | 29.28082 | -89.87464 | 718 ft | 185 kts | 0° |
| 2026-04-21 00:39 | 29.29271 | -89.87338 | 411 ft | 165 kts | 13° |
| 2026-04-21 00:40 | 29.30389 | -89.87115 | 274 ft | 159 kts | 15° |
| 2026-04-21 00:40 | 29.31497 | -89.86727 | 111 ft | 172 kts | 25° |
| 2026-04-21 00:40 | 29.32586 | -89.86288 | 239 ft | 168 kts | 21° |
| 2026-04-21 00:40 | 29.33707 | -89.85965 | 303 ft | 163 kts | 19° |
| 2026-04-21 00:41 | 29.34831 | -89.85634 | 252 ft | 164 kts | 18° |
| 2026-04-21 00:41 | 29.35939 | -89.85353 | 357 ft | 161 kts | 17° |
| 2026-04-21 00:41 | 29.37046 | -89.85099 | 324 ft | 165 kts | 17° |
| 2026-04-21 00:41 | 29.38189 | -89.84797 | 114 ft | 167 kts | 17° |
| 2026-04-21 00:42 | 29.39330 | -89.84507 | 172 ft | 165 kts | 16° |
| 2026-04-21 00:42 | 29.40443 | -89.84239 | 180 ft | 157 kts | 16° |
| 2026-04-21 00:42 | 29.41481 | -89.83987 | 199 ft | 149 kts | 18° |
| 2026-04-21 00:42 | 29.42482 | -89.83702 | 293 ft | 147 kts | 20° |
| 2026-04-21 00:43 | 29.43520 | -89.83508 | 264 ft | 152 kts | 9° |
| 2026-04-21 00:43 | 29.44522 | -89.83204 | 235 ft | 144 kts | 55° |
| 2026-04-21 00:43 | 29.45423 | -89.82795 | 310 ft | 140 kts | 8° |
| 2026-04-21 00:43 | 29.46451 | -89.82707 | 130 ft | 150 kts | 8° |
| 2026-04-21 00:44 | 29.47269 | -89.82925 | 425 ft | 105 kts | 4° |
| 2026-04-21 00:44 | 29.48081 | -89.82975 | 326 ft | 120 kts | 8° |
| 2026-04-21 00:44 | 29.49005 | -89.82908 | 183 ft | 146 kts | 8° |
| 2026-04-21 00:45 | 29.50899 | -89.82753 | 397 ft | 134 kts | 20° |
| 2026-04-21 00:45 | 29.51697 | -89.82291 | 360 ft | 129 kts | 41° |
| 2026-04-21 00:45 | 29.52408 | -89.81695 | 456 ft | 124 kts | 40° |
| 2026-04-21 00:45 | 29.53099 | -89.81122 | 423 ft | 115 kts | 40° |
| 2026-04-21 00:46 | 29.53683 | -89.80654 | 273 ft | 98 kts | 40° |
| 2026-04-21 00:46 | 29.54264 | -89.80211 | 444 ft | 102 kts | 40° |
| 2026-04-21 00:46 | 29.54860 | -89.79739 | 395 ft | 109 kts | 40° |
| 2026-04-21 00:46 | 29.55560 | -89.79289 | 592 ft | 128 kts | 28° |
| 2026-04-21 00:47 | 29.56493 | -89.79128 | 360 ft | 155 kts | 335° |
| 2026-04-21 00:47 | 29.57399 | -89.79903 | 281 ft | 166 kts | 307° |
| 2026-04-21 00:47 | 29.58076 | -89.80923 | 220 ft | 155 kts | 297° |
| 2026-04-21 00:47 | 29.58704 | -89.81881 | 389 ft | 158 kts | 292° |
| 2026-04-21 00:48 | 29.59338 | -89.83019 | 508 ft | 175 kts | 310° |
| 2026-04-21 00:48 | 29.60039 | -89.84207 | 513 ft | 191 kts | 289° |
| 2026-04-21 00:48 | 29.60361 | -89.85697 | 358 ft | 190 kts | 281° |
| 2026-04-21 00:48 | 29.60745 | -89.87111 | 166 ft | 166 kts | 293° |
| 2026-04-21 00:49 | 29.61139 | -89.88282 | 95 ft | 156 kts | 290° |
| 2026-04-21 00:49 | 29.61519 | -89.89321 | 705 ft | 145 kts | 302° |
| 2026-04-21 00:49 | 29.62053 | -89.90481 | 375 ft | 169 kts | 301° |
| 2026-04-21 00:49 | 29.62690 | -89.91576 | 546 ft | 169 kts | 310° |
| 2026-04-21 00:50 | 29.63429 | -89.92750 | 268 ft | 191 kts | 303° |
| 2026-04-21 00:50 | 29.64101 | -89.94106 | 121 ft | 201 kts | 301° |
| 2026-04-21 00:50 | 29.64840 | -89.95318 | 66 ft | 169 kts | 327° |
| 2026-04-21 00:50 | 29.65832 | -89.95823 | 144 ft | 155 kts | 351° |
| 2026-04-21 00:51 | 29.66900 | -89.96027 | 92 ft | 160 kts | 347° |
| 2026-04-21 00:51 | 29.67961 | -89.96409 | 55 ft | 159 kts | 341° |
| 2026-04-21 00:51 | 29.68972 | -89.96909 | 90 ft | 160 kts | 331° |
| 2026-04-21 00:51 | 29.69838 | -89.97423 | 95 ft | 113 kts | 338° |
| 2026-04-21 00:52 | 29.70500 | -89.97840 | 106 ft | 111 kts | 334° |
| 2026-04-21 00:52 | 29.71172 | -89.98280 | 168 ft | 112 kts | 336° |
| 2026-04-21 00:52 | 29.71844 | -89.98656 | 100 ft | 103 kts | 338° |
| 2026-04-21 00:52 | 29.72462 | -89.99035 | 89 ft | 100 kts | 335° |
| 2026-04-21 00:53 | 29.73041 | -89.99462 | 215 ft | 96 kts | 327° |
| 2026-04-21 00:53 | 29.73682 | -90.00174 | 191 ft | 153 kts | 314° |
| 2026-04-21 00:53 | 29.74453 | -90.01089 | 95 ft | 165 kts | 314° |
| 2026-04-21 00:53 | 29.75015 | -90.01781 | 134 ft | 37 kts | 317° |
| 2026-04-21 00:54 | 29.75259 | -90.01983 | 214 ft | 69 kts | 336° |
| 2026-04-21 00:54 | 29.75826 | -90.02148 | 239 ft | 95 kts | 357° |
| 2026-04-21 00:54 | 29.76528 | -90.02212 | 218 ft | 108 kts | 359° |
| 2026-04-21 00:54 | 29.77271 | -90.02310 | 331 ft | 106 kts | 359° |
| 2026-04-21 00:55 | 29.78003 | -90.02296 | 127 ft | 108 kts | 9° |
| 2026-04-21 00:55 | 29.78703 | -90.02092 | 277 ft | 110 kts | 32° |
| 2026-04-21 00:55 | 29.79414 | -90.01535 | 215 ft | 133 kts | 28° |
| 2026-04-21 00:55 | 29.80262 | -90.01499 | 348 ft | 129 kts | 329° |
| 2026-04-21 00:56 | 29.81021 | -90.02077 | 182 ft | 123 kts | 321° |
| 2026-04-21 00:56 | 29.81468 | -90.02488 | 97 ft | 23 kts | 328° |
| 2026-04-21 00:56 | 29.81500 | -90.02487 | 10 ft | 5 kts | 49° |
| 2026-04-21 00:56 | 29.81519 | -90.02461 | 10 ft | 3 kts | 54° |
| 2026-04-21 00:57 | 29.81521 | -90.02457 | 10 ft | 0 kts | 55° |
| 2026-04-21 00:57 | 29.81547 | -90.02418 | 10 ft | 6 kts | 52° |
| 2026-04-21 00:57 | 29.81565 | -90.02400 | 10 ft | 4 kts | 349° |
| 2026-04-21 00:57 | 29.81633 | -90.02445 | 10 ft | 15 kts | 321° |
| 2026-04-21 00:58 | 29.81700 | -90.02500 | 9 ft | 10 kts | 323° |
| 2026-04-21 00:58 | 29.81809 | -90.02589 | 66 ft | 49 kts | 310° |
| 2026-04-21 00:58 | 29.82065 | -90.02681 | 26 ft | 9 kts | 47° |
| 2026-04-21 00:58 | 29.82083 | -90.02653 | 22 ft | 18 kts | 358° |
| 2026-04-21 00:59 | 29.82121 | -90.02650 | 9 ft | 2 kts | 291° |
| 2026-04-21 00:59 | 29.82118 | -90.02644 | 9 ft | 0 kts | 327° |